Time;durP1;ratioP1;P1;durP2;ratioP2;P2;SDS_P1;SDS_P2;PMS_P1;PMS_P2;Temp;Humidity;BMP_temperature;BMP_pressure;BME280_temperature;BME280_humidity;BME280_pressure;Samples;Min_cycle;Max_cycle;Signal;HPM_P1;HPM_P2
2021/06/20 00:00:18;;;;;;;2.65;1.45;;;;;;;16.61;72.45;93813.94;5097672;28;20024;-78
2021/06/20 00:02:45;;;;;;;2.05;1.40;;;;;;;16.52;72.40;93813.34;5103065;28;20024;-78
2021/06/20 00:05:14;;;;;;;2.10;1.30;;;;;;;16.53;72.39;93819.53;5106027;28;20024;-78
2021/06/20 00:07:41;;;;;;;7.80;1.95;;;;;;;16.51;72.33;93809.09;5108528;28;20051;-78
2021/06/20 00:10:08;;;;;;;4.03;1.30;;;;;;;16.48;72.12;93807.09;5108212;28;20024;-78
2021/06/20 00:12:39;;;;;;;2.45;1.40;;;;;;;16.45;72.38;93799.75;5109228;28;20089;-80
2021/06/20 00:15:09;;;;;;;7.15;1.45;;;;;;;16.41;72.80;93801.59;5108017;28;20051;-78
2021/06/20 00:17:35;;;;;;;6.70;1.77;;;;;;;16.40;72.53;93797.31;5094152;28;20028;-78
2021/06/20 00:20:01;;;;;;;3.65;1.40;;;;;;;16.41;72.76;93796.97;5107508;28;20530;-78
2021/06/20 00:22:26;;;;;;;3.58;1.73;;;;;;;16.42;72.73;93801.25;5109716;28;20127;-78
2021/06/20 00:24:51;;;;;;;5.30;1.63;;;;;;;16.44;72.67;93800.88;5096086;28;20032;-78
2021/06/20 00:27:17;;;;;;;3.67;1.67;;;;;;;16.43;72.81;93802.78;5094518;28;20020;-78
2021/06/20 00:29:42;;;;;;;8.25;1.52;;;;;;;16.44;72.80;93809.72;5106981;28;20027;-78
2021/06/20 00:32:08;;;;;;;3.65;1.48;;;;;;;16.42;72.96;93801.25;5110896;28;20506;-78
2021/06/20 00:34:34;;;;;;;6.45;2.63;;;;;;;16.40;73.18;93802.69;5091741;28;20560;-78
2021/06/20 00:36:59;;;;;;;7.45;1.75;;;;;;;16.37;72.84;93800.72;5101583;28;20040;-78
2021/06/20 00:39:25;;;;;;;7.50;1.50;;;;;;;16.36;73.10;93799.91;5107762;28;20100;-79
2021/06/20 00:41:50;;;;;;;2.58;1.63;;;;;;;16.37;73.02;93817.63;5096752;28;20024;-79
2021/06/20 00:44:15;;;;;;;3.97;1.40;;;;;;;16.31;73.23;93810.19;5091448;28;20032;-79
2021/06/20 00:46:41;;;;;;;3.72;1.60;;;;;;;16.28;73.36;93800.88;5106904;28;20160;-79
2021/06/20 00:49:06;;;;;;;4.65;1.60;;;;;;;16.29;73.28;93810.53;5101560;28;20020;-79
2021/06/20 00:51:32;;;;;;;4.80;1.60;;;;;;;16.25;73.49;93807.00;5094057;28;20157;-76
2021/06/20 00:53:57;;;;;;;4.13;1.50;;;;;;;16.19;73.48;93803.00;5102106;28;20027;-76
2021/06/20 00:56:23;;;;;;;3.17;1.77;;;;;;;16.20;73.47;93807.25;5106513;28;20491;-77
2021/06/20 00:58:48;;;;;;;5.70;2.33;;;;;;;16.18;73.64;93793.38;5106253;28;20036;-77
2021/06/20 01:01:14;;;;;;;5.40;1.60;;;;;;;16.19;73.50;93794.94;5106894;28;20028;-77
2021/06/20 01:03:40;;;;;;;2.72;1.70;;;;;;;16.19;73.44;93793.03;5103203;28;20027;-76
2021/06/20 01:06:06;;;;;;;7.20;1.70;;;;;;;16.20;73.49;93783.03;5095705;28;20081;-76
2021/06/20 01:08:31;;;;;;;5.18;1.80;;;;;;;16.15;73.42;93783.31;5102516;28;20023;-76
2021/06/20 01:10:57;;;;;;;5.82;1.98;;;;;;;16.15;73.19;93776.03;5102847;28;20085;-76
2021/06/20 01:13:23;;;;;;;2.33;1.50;;;;;;;16.10;73.52;93783.56;5102476;28;20036;-77
2021/06/20 01:15:51;;;;;;;13.38;5.10;;;;;;;16.13;73.33;93783.66;5114153;27;20487;-76
2021/06/20 01:18:18;;;;;;;2.67;1.52;;;;;;;16.15;73.47;93772.56;5098704;28;20032;-77
2021/06/20 01:20:44;;;;;;;5.80;1.70;;;;;;;16.08;73.54;93767.81;5101994;28;20436;-77
2021/06/20 01:23:10;;;;;;;2.30;1.70;;;;;;;16.13;73.62;93770.22;5096046;28;20471;-77
2021/06/20 01:25:40;;;;;;;4.70;1.83;;;;;;;16.18;73.40;93772.66;5106264;28;20034;-77
2021/06/20 01:28:09;;;;;;;4.22;1.48;;;;;;;16.18;73.61;93780.72;5090773;28;20487;-77
2021/06/20 01:30:40;;;;;;;2.63;1.75;;;;;;;16.18;73.24;93780.72;5104898;28;20031;-78
2021/06/20 01:33:08;;;;;;;2.28;1.58;;;;;;;16.15;73.43;93783.31;5100540;28;20501;-79
2021/06/20 01:35:35;;;;;;;2.38;1.60;;;;;;;16.13;73.45;93786.34;5108569;28;20020;-79
2021/06/20 01:38:02;;;;;;;3.58;1.70;;;;;;;16.10;73.31;93789.75;5105826;28;20470;-79
2021/06/20 01:40:28;;;;;;;3.53;1.75;;;;;;;16.09;73.55;93784.72;5106427;28;20461;-78
2021/06/20 01:42:54;;;;;;;4.60;1.88;;;;;;;16.09;73.85;93793.56;5098570;28;20030;-81
2021/06/20 01:45:21;;;;;;;4.85;1.80;;;;;;;16.08;74.11;93783.94;5113817;28;20119;-80
2021/06/20 01:47:49;;;;;;;3.15;1.73;;;;;;;16.03;73.91;93787.66;5110514;28;20035;-81
2021/06/20 01:50:16;;;;;;;6.75;2.22;;;;;;;16.03;74.02;93792.25;5113599;28;20495;-81
2021/06/20 01:52:42;;;;;;;4.80;1.77;;;;;;;16.01;73.91;93786.47;5099027;28;20112;-80
2021/06/20 01:55:09;;;;;;;5.97;1.42;;;;;;;15.99;73.94;93792.19;5109051;28;20028;-80
2021/06/20 01:57:37;;;;;;;3.55;1.63;;;;;;;15.95;73.99;93801.28;5106557;28;20038;-81
2021/06/20 02:00:15;;;;;;;3.03;1.83;;;;;;;15.90;74.23;93796.19;5108706;28;20039;-81
2021/06/20 02:02:41;;;;;;;4.78;1.85;;;;;;;15.88;74.19;93795.75;5109275;28;20115;-80
2021/06/20 02:05:07;;;;;;;3.22;1.70;;;;;;;15.89;74.02;93791.94;5111704;28;20099;-80
2021/06/20 02:07:35;;;;;;;7.93;1.80;;;;;;;15.86;74.03;93803.41;5107337;28;20032;-80
2021/06/20 02:10:01;;;;;;;5.50;1.70;;;;;;;15.83;74.12;93802.97;5093012;28;20028;-80
2021/06/20 02:12:27;;;;;;;2.65;1.75;;;;;;;15.82;74.13;93801.38;5101679;28;20087;-81
2021/06/20 02:14:54;;;;;;;3.63;1.70;;;;;;;15.81;73.88;93797.16;5093353;28;20067;-80
2021/06/20 02:17:30;;;;;;;4.95;1.63;;;;;;;15.77;74.18;93798.16;5092522;28;20035;-81
2021/06/20 02:19:59;;;;;;;3.05;1.98;;;;;;;15.73;74.05;93798.06;5102384;28;20036;-80
2021/06/20 02:22:30;;;;;;;2.45;1.77;;;;;;;15.72;73.88;93809.97;5112826;28;20020;-80
2021/06/20 02:24:55;;;;;;;7.32;2.08;;;;;;;15.72;74.02;93799.22;5093318;28;20024;-80
2021/06/20 02:27:21;;;;;;;4.68;2.10;;;;;;;15.66;73.99;93822.06;5095486;28;20046;-80
2021/06/20 02:29:50;;;;;;;5.47;2.28;;;;;;;15.62;73.77;93813.13;5104547;28;20032;-78
2021/06/20 02:32:15;;;;;;;3.70;1.92;;;;;;;15.59;73.68;93811.13;5091657;28;20028;-78
2021/06/20 02:34:41;;;;;;;12.20;2.20;;;;;;;15.55;73.92;93810.25;5100093;28;20035;-78
2021/06/20 02:37:08;;;;;;;2.33;1.50;;;;;;;15.53;73.95;93805.25;5101975;28;20019;-79
2021/06/20 02:39:34;;;;;;;4.18;1.63;;;;;;;15.43;74.21;93801.16;5104445;28;20451;-76
2021/06/20 02:42:00;;;;;;;5.80;1.80;;;;;;;15.42;74.57;93804.97;5092239;28;20059;-76
2021/06/20 02:44:25;;;;;;;3.20;2.15;;;;;;;15.44;74.18;93810.75;5088928;28;20111;-77
2021/06/20 02:46:51;;;;;;;5.13;1.73;;;;;;;15.40;74.19;93812.56;5089350;28;20119;-77
2021/06/20 02:49:16;;;;;;;4.53;1.67;;;;;;;15.38;74.40;93801.41;5090595;28;20036;-77
2021/06/20 02:51:44;;;;;;;2.75;1.92;;;;;;;15.36;74.16;93800.19;5094190;28;20024;-77
2021/06/20 02:54:12;;;;;;;4.25;2.03;;;;;;;15.39;74.08;93807.56;5110563;28;20023;-78
2021/06/20 02:56:38;;;;;;;2.75;1.65;;;;;;;15.35;74.25;93801.34;5106861;28;20020;-78
2021/06/20 02:59:04;;;;;;;6.70;2.38;;;;;;;15.35;73.96;93807.47;5089051;28;20028;-78
2021/06/20 03:01:30;;;;;;;5.72;2.03;;;;;;;15.39;73.75;93819.09;5108482;28;20103;-78
2021/06/20 03:03:55;;;;;;;4.25;1.80;;;;;;;15.39;73.75;93813.72;5109278;28;20110;-77
2021/06/20 03:06:21;;;;;;;2.45;1.70;;;;;;;15.41;73.57;93803.41;5109027;28;20020;-77
2021/06/20 03:08:46;;;;;;;3.47;2.20;;;;;;;15.41;73.65;93803.41;5102377;28;20059;-77
2021/06/20 03:11:12;;;;;;;4.40;1.67;;;;;;;15.43;73.35;93797.72;5102609;28;20020;-76
2021/06/20 03:13:38;;;;;;;4.55;1.92;;;;;;;15.44;73.40;93802.72;5100154;28;20468;-76
2021/06/20 03:16:04;;;;;;;4.20;1.52;;;;;;;15.44;73.13;93800.03;5103640;28;20028;-76
2021/06/20 03:18:29;;;;;;;5.65;2.33;;;;;;;15.43;73.13;93803.84;5091786;28;20081;-78
2021/06/20 03:20:55;;;;;;;2.33;1.42;;;;;;;15.44;73.01;93794.66;5088979;28;20434;-78
2021/06/20 03:23:20;;;;;;;2.65;1.63;;;;;;;15.47;72.78;93803.94;5089958;28;20020;-79
2021/06/20 03:25:45;;;;;;;2.53;1.70;;;;;;;15.50;72.81;93797.09;5097281;28;20046;-79
2021/06/20 03:28:11;;;;;;;6.35;2.10;;;;;;;15.54;72.67;93798.75;5095852;28;20375;-78
2021/06/20 03:30:37;;;;;;;2.70;1.75;;;;;;;15.58;72.70;93788.88;5108885;28;20103;-79
2021/06/20 03:33:02;;;;;;;6.95;2.28;;;;;;;15.63;72.41;93801.25;5103239;28;20059;-76
2021/06/20 03:35:28;;;;;;;3.00;2.05;;;;;;;15.69;72.58;93789.13;5108854;28;20026;-76
2021/06/20 03:37:54;;;;;;;2.85;1.67;;;;;;;15.73;72.50;93792.69;5096195;28;20103;-76
2021/06/20 03:40:20;;;;;;;3.10;1.77;;;;;;;15.79;72.58;93804.78;5096319;28;20020;-76
2021/06/20 03:42:46;;;;;;;4.75;1.85;;;;;;;15.87;72.34;93802.25;5110100;28;20451;-76
2021/06/20 03:45:11;;;;;;;2.83;1.80;;;;;;;15.94;72.35;93795.16;5110164;28;20084;-76
2021/06/20 03:47:38;;;;;;;3.92;2.00;;;;;;;16.02;72.18;93801.47;5108622;28;20495;-78
2021/06/20 03:50:05;;;;;;;4.60;1.85;;;;;;;16.09;72.32;93790.09;5088738;28;20472;-79
2021/06/20 03:52:30;;;;;;;3.15;1.75;;;;;;;16.17;71.93;93786.44;5093796;28;20020;-80
2021/06/20 03:54:56;;;;;;;3.15;1.67;;;;;;;16.24;71.64;93789.28;5088466;28;20093;-79
2021/06/20 03:57:22;;;;;;;3.13;1.95;;;;;;;16.34;71.39;93786.03;5091193;28;20122;-79
2021/06/20 03:59:48;;;;;;;3.60;2.00;;;;;;;16.43;71.14;93781.25;5108602;28;20035;-79
2021/06/20 04:02:13;;;;;;;7.82;2.00;;;;;;;16.52;71.27;93780.28;5098647;28;20020;-79
2021/06/20 04:04:40;;;;;;;5.18;2.13;;;;;;;16.60;70.81;93788.16;5104415;28;20027;-78
2021/06/20 04:07:07;;;;;;;3.60;1.90;;;;;;;16.69;70.96;93787.16;5102190;28;20020;-78
2021/06/20 04:09:32;;;;;;;3.30;1.83;;;;;;;16.77;70.42;93802.31;5105493;28;20032;-78
2021/06/20 04:11:58;;;;;;;5.30;1.77;;;;;;;16.84;69.64;93794.44;5105948;28;20026;-79
2021/06/20 04:14:23;;;;;;;2.55;1.33;;;;;;;16.94;69.48;93793.09;5101001;28;20031;-80
2021/06/20 04:16:49;;;;;;;5.70;1.85;;;;;;;17.03;68.73;93793.66;5116921;27;20035;-80
2021/06/20 04:19:15;;;;;;;3.28;1.50;;;;;;;17.13;68.55;93798.47;5104611;28;20020;-81
2021/06/20 04:21:40;;;;;;;2.20;1.58;;;;;;;17.20;68.15;93804.00;5109203;28;20027;-82
2021/06/20 04:24:07;;;;;;;2.38;1.60;;;;;;;17.30;67.93;93810.72;5104438;28;20019;-81
2021/06/20 04:26:32;;;;;;;7.75;1.67;;;;;;;17.40;67.51;93818.22;5100509;28;20114;-81
2021/06/20 04:28:58;;;;;;;4.47;2.00;;;;;;;17.47;68.05;93812.19;5105087;28;20032;-81
2021/06/20 04:31:23;;;;;;;10.07;2.05;;;;;;;17.56;67.59;93803.84;5113810;28;20038;-81
2021/06/20 04:33:48;;;;;;;3.72;1.60;;;;;;;17.62;67.33;93808.59;5128508;27;20061;-81
2021/06/20 04:36:14;;;;;;;2.20;1.50;;;;;;;17.72;66.27;93809.13;5098954;28;20019;-81
2021/06/20 04:38:40;;;;;;;1.88;1.33;;;;;;;17.80;65.91;93813.50;5097786;28;20032;-81
2021/06/20 04:41:09;;;;;;;2.20;1.40;;;;;;;17.87;65.39;93812.88;5105983;28;20491;-82
2021/06/20 04:46:27;;;;;;;6.78;1.83;;;;;;;17.97;67.50;93818.47;5108236;28;20028;-81
2021/06/20 04:49:01;;;;;;;4.75;2.53;;;;;;;17.94;67.33;93821.09;5108633;28;20058;-82
2021/06/20 04:51:31;;;;;;;8.75;3.15;;;;;;;17.88;68.00;93830.63;5099384;28;20042;-82
2021/06/20 04:53:57;;;;;;;6.28;2.65;;;;;;;17.83;68.82;93835.19;5110361;28;20028;-82
2021/06/20 04:56:24;;;;;;;9.27;3.85;;;;;;;17.74;69.41;93826.50;5113103;28;20555;-82
2021/06/20 04:58:49;;;;;;;8.70;4.07;;;;;;;17.67;70.36;93839.06;5101848;28;20028;-82
2021/06/20 05:01:15;;;;;;;5.97;4.53;;;;;;;17.61;70.65;93833.22;5105844;28;20032;-82
2021/06/20 05:03:41;;;;;;;8.00;5.40;;;;;;;17.53;71.75;93837.69;5106293;28;20012;-82
2021/06/20 05:06:06;;;;;;;9.93;5.18;;;;;;;17.49;71.32;93841.47;5105685;28;20028;-80
2021/06/20 05:08:32;;;;;;;13.98;5.50;;;;;;;17.42;71.51;93837.50;5093968;28;20016;-79
2021/06/20 05:10:57;;;;;;;8.75;6.10;;;;;;;17.47;72.35;93832.97;5106496;28;20643;-79
2021/06/20 05:13:23;;;;;;;8.55;5.72;;;;;;;17.50;72.08;93837.63;5109627;28;20092;-76
2021/06/20 05:15:49;;;;;;;14.50;6.30;;;;;;;17.55;71.67;93835.41;5108784;28;20035;-76
2021/06/20 05:18:14;;;;;;;8.75;5.85;;;;;;;17.64;71.54;93833.25;5102565;28;20020;-78
2021/06/20 05:20:40;;;;;;;12.95;6.88;;;;;;;17.70;71.85;93833.75;5097087;28;20471;-77
2021/06/20 05:23:09;;;;;;;8.45;6.10;;;;;;;17.80;71.72;93830.47;5098661;28;20249;-78
2021/06/20 05:25:35;;;;;;;10.10;6.43;;;;;;;17.91;71.71;93824.50;5101393;28;20027;-77
2021/06/20 05:28:00;;;;;;;12.60;6.50;;;;;;;17.98;70.94;93833.50;5106107;28;20027;-77
2021/06/20 05:30:26;;;;;;;8.82;6.28;;;;;;;18.06;70.91;93833.63;5102599;28;20190;-77
2021/06/20 05:32:54;;;;;;;11.70;7.30;;;;;;;18.18;71.21;93831.50;5104757;28;20503;-77
2021/06/20 05:35:19;;;;;;;10.85;6.53;;;;;;;18.30;71.08;93840.53;5095301;28;20063;-76
2021/06/20 05:37:45;;;;;;;6.07;4.45;;;;;;;18.40;70.13;93840.69;5096591;28;20096;-76
2021/06/20 05:40:11;;;;;;;6.80;4.35;;;;;;;18.52;68.27;93842.44;5098473;28;20081;-82
2021/06/20 05:42:36;;;;;;;15.23;3.50;;;;;;;18.62;67.97;93836.41;5097518;28;20032;-82
2021/06/20 05:45:03;;;;;;;7.25;3.50;;;;;;;18.72;67.41;93839.59;5104834;28;20111;-82
2021/06/20 05:47:28;;;;;;;7.80;3.00;;;;;;;18.82;66.91;93833.59;5101751;28;20024;-81
2021/06/20 05:49:54;;;;;;;4.60;3.05;;;;;;;18.92;65.66;93837.59;5093411;28;20016;-76
2021/06/20 05:52:19;;;;;;;8.95;3.08;;;;;;;18.96;64.91;93838.41;5096456;28;20110;-76
2021/06/20 05:54:49;;;;;;;5.82;2.83;;;;;;;19.02;65.02;93836.94;5104922;28;20399;-76
2021/06/20 05:57:16;;;;;;;7.20;3.20;;;;;;;19.01;66.03;93836.16;5111543;28;20430;-76
2021/06/20 05:59:41;;;;;;;7.45;2.78;;;;;;;19.04;66.12;93837.34;5110510;28;20559;-75
2021/06/20 06:02:07;;;;;;;4.38;2.58;;;;;;;19.05;65.57;93830.81;5104432;28;20028;-78
2021/06/20 06:04:32;;;;;;;5.13;2.75;;;;;;;19.09;64.65;93830.84;5089843;28;20023;-78
2021/06/20 06:06:58;;;;;;;6.15;3.08;;;;;;;19.15;64.98;93818.56;5096760;28;20034;-77
2021/06/20 06:09:23;;;;;;;4.30;2.25;;;;;;;19.19;64.57;93824.78;5103003;28;20028;-78
2021/06/20 06:11:50;;;;;;;4.32;2.30;;;;;;;19.21;63.77;93817.91;5104895;28;20448;-77
2021/06/20 06:14:16;;;;;;;6.05;3.00;;;;;;;19.20;62.96;93818.25;5103046;28;20065;-77
2021/06/20 06:16:41;;;;;;;7.45;2.60;;;;;;;19.22;62.49;93815.97;5101923;28;20837;-77
2021/06/20 06:19:07;;;;;;;9.43;2.97;;;;;;;19.22;63.08;93813.25;5094992;28;20397;-74
2021/06/20 06:21:32;;;;;;;8.90;2.92;;;;;;;19.26;63.24;93805.97;5088866;28;20159;-74
2021/06/20 06:23:58;;;;;;;9.70;2.70;;;;;;;19.32;63.17;93809.13;5089503;28;20372;-74
2021/06/20 06:26:23;;;;;;;5.25;2.60;;;;;;;19.33;63.21;93806.03;5089753;28;20030;-74
2021/06/20 06:28:49;;;;;;;5.28;3.10;;;;;;;19.36;63.51;93807.25;5090704;28;20031;-74
2021/06/20 06:31:15;;;;;;;5.53;2.60;;;;;;;19.42;63.17;93803.84;5101608;28;20027;-73
2021/06/20 06:33:40;;;;;;;8.60;2.80;;;;;;;19.51;63.40;93800.06;5109629;28;20028;-74
2021/06/20 06:36:06;;;;;;;9.15;3.08;;;;;;;19.60;62.64;93795.09;5109418;28;20399;-74
2021/06/20 06:38:31;;;;;;;6.18;4.40;;;;;;;19.67;63.18;93792.47;5106375;28;20096;-75
2021/06/20 06:40:57;;;;;;;5.35;3.00;;;;;;;19.73;62.88;93796.44;5109481;28;20110;-75
2021/06/20 06:43:22;;;;;;;5.65;2.85;;;;;;;19.67;61.81;93787.06;5110640;28;20055;-74
2021/06/20 06:45:48;;;;;;;7.25;3.70;;;;;;;19.73;61.86;93792.97;5100200;28;20031;-75
2021/06/20 06:48:13;;;;;;;5.65;3.55;;;;;;;19.78;61.49;93798.00;5094458;28;20024;-75
2021/06/20 06:50:40;;;;;;;5.20;2.88;;;;;;;19.84;62.21;93802.72;5089876;28;20498;-75
2021/06/20 06:53:05;;;;;;;9.35;2.92;;;;;;;19.96;61.09;93814.41;5088931;28;20445;-73
2021/06/20 06:55:31;;;;;;;5.68;3.05;;;;;;;19.78;60.48;93806.91;5089964;28;20020;-73
2021/06/20 06:57:57;;;;;;;6.03;3.28;;;;;;;19.74;60.57;93816.94;5089820;28;20024;-73
2021/06/20 07:00:23;;;;;;;9.10;3.05;;;;;;;19.64;60.21;93812.94;5096031;28;20110;-73
2021/06/20 07:02:48;;;;;;;7.35;3.38;;;;;;;19.70;60.57;93813.38;5107607;28;20023;-74
2021/06/20 07:05:14;;;;;;;6.40;3.08;;;;;;;19.79;60.80;93819.28;5088654;28;20115;-73
2021/06/20 07:07:39;;;;;;;5.07;2.95;;;;;;;19.85;60.17;93817.03;5090022;28;20070;-73
2021/06/20 07:10:05;;;;;;;4.88;2.65;;;;;;;19.89;60.49;93814.34;5098221;28;20039;-78
2021/06/20 07:12:31;;;;;;;7.40;3.65;;;;;;;19.93;59.66;93820.56;5102142;28;20048;-78
2021/06/20 07:15:16;;;;;;;6.25;3.42;;;;;;;19.90;59.39;93808.56;5099509;28;20476;-76
2021/06/20 07:17:41;;;;;;;7.65;2.90;;;;;;;19.92;60.57;93806.25;5107903;28;20080;-76
2021/06/20 07:20:11;;;;;;;12.45;3.10;;;;;;;20.00;60.15;93805.16;5107641;28;20475;-77
2021/06/20 07:22:37;;;;;;;8.40;2.35;;;;;;;20.03;58.36;93807.13;5100101;28;20103;-76
2021/06/20 07:25:04;;;;;;;4.00;2.13;;;;;;;20.04;57.72;93807.91;5096654;28;20102;-76
2021/06/20 07:27:29;;;;;;;4.07;2.33;;;;;;;20.05;57.78;93798.66;5112118;27;20512;-75
2021/06/20 07:29:55;;;;;;;7.63;2.40;;;;;;;20.01;56.57;93797.84;5091525;28;20028;-75
2021/06/20 07:32:21;;;;;;;6.38;3.03;;;;;;;19.96;57.56;93792.75;5100571;28;20015;-76
2021/06/20 07:34:46;;;;;;;3.75;2.35;;;;;;;19.94;56.96;93786.94;5110080;28;20081;-76
2021/06/20 07:37:12;;;;;;;7.07;2.63;;;;;;;19.97;58.47;93797.03;5096405;28;20028;-74
2021/06/20 07:39:37;;;;;;;3.90;2.10;;;;;;;20.04;58.54;93797.84;5110060;28;20035;-76
2021/06/20 07:42:03;;;;;;;7.93;2.17;;;;;;;20.05;57.55;93785.13;5101682;28;20019;-76
2021/06/20 07:44:28;;;;;;;4.22;2.10;;;;;;;20.03;58.30;93784.72;5100840;28;20047;-76
2021/06/20 07:46:54;;;;;;;4.50;2.00;;;;;;;20.06;57.91;93775.84;5102394;28;20023;-76
2021/06/20 07:49:19;;;;;;;10.82;2.50;;;;;;;20.07;58.00;93780.09;5101352;28;20484;-76
2021/06/20 07:51:46;;;;;;;3.90;2.13;;;;;;;20.03;58.46;93787.41;5102582;28;20023;-76
2021/06/20 07:54:11;;;;;;;4.35;2.75;;;;;;;20.17;57.79;93784.81;5097585;28;20023;-76
2021/06/20 07:56:37;;;;;;;4.45;2.58;;;;;;;20.29;58.36;93791.84;5100402;28;20475;-76
2021/06/20 07:59:02;;;;;;;4.00;2.50;;;;;;;20.42;55.91;93778.81;5108748;28;20072;-76
2021/06/20 08:01:29;;;;;;;4.30;2.10;;;;;;;20.47;57.12;93780.38;5108603;28;20027;-76
2021/06/20 08:03:54;;;;;;;5.20;2.45;;;;;;;20.54;56.20;93775.78;5107523;28;20069;-76
2021/06/20 08:06:20;;;;;;;3.30;2.05;;;;;;;20.61;55.26;93781.25;5099757;28;20016;-76
2021/06/20 08:08:46;;;;;;;4.88;2.50;;;;;;;20.66;54.88;93782.84;5090004;28;20547;-76
2021/06/20 08:11:11;;;;;;;3.88;2.42;;;;;;;20.69;56.16;93775.88;5100750;28;20032;-75
2021/06/20 08:13:37;;;;;;;2.20;1.50;;;;;;;20.75;55.97;93771.66;5092428;28;20040;-76
2021/06/20 08:16:02;;;;;;;5.07;2.45;;;;;;;20.92;56.14;93783.72;5106721;28;20026;-76
2021/06/20 08:18:28;;;;;;;4.20;1.98;;;;;;;20.99;55.12;93784.53;5104941;28;20031;-76
2021/06/20 08:20:53;;;;;;;4.05;2.00;;;;;;;21.11;55.09;93785.38;5118135;28;20571;-76
2021/06/20 08:23:18;;;;;;;5.47;2.22;;;;;;;21.22;53.83;93786.16;5088126;28;20017;-76
2021/06/20 08:25:44;;;;;;;6.80;2.50;;;;;;;21.14;53.44;93779.16;5089577;28;20042;-76
2021/06/20 08:28:09;;;;;;;4.82;2.40;;;;;;;21.23;53.41;93780.38;5087760;28;20024;-76
2021/06/20 08:30:35;;;;;;;4.25;2.30;;;;;;;21.35;52.32;93778.44;5090873;28;20064;-76
2021/06/20 08:33:00;;;;;;;3.58;1.90;;;;;;;21.36;51.34;93780.78;5099036;28;20024;-76
2021/06/20 08:35:26;;;;;;;3.10;1.73;;;;;;;21.38;52.42;93783.13;5103033;28;20020;-76
2021/06/20 08:37:52;;;;;;;6.03;2.30;;;;;;;21.40;52.54;93781.56;5097538;28;20110;-76
2021/06/20 08:40:17;;;;;;;4.28;2.30;;;;;;;21.49;52.05;93792.06;5088835;28;20101;-76
2021/06/20 08:42:43;;;;;;;5.10;1.95;;;;;;;21.49;50.62;93788.59;5092953;28;20024;-76
2021/06/20 08:45:09;;;;;;;3.70;2.10;;;;;;;21.50;51.24;93793.63;5094112;28;20023;-76
2021/06/20 08:47:35;;;;;;;5.82;1.88;;;;;;;21.54;50.71;93799.06;5091381;28;20032;-75
2021/06/20 08:50:01;;;;;;;3.33;1.88;;;;;;;21.52;49.06;93795.97;5101934;28;20027;-76
2021/06/20 08:52:26;;;;;;;3.67;1.98;;;;;;;21.53;51.38;93789.38;5112506;28;20081;-76
2021/06/20 08:55:06;;;;;;;2.90;1.95;;;;;;;21.60;49.07;93792.88;5098316;28;20035;-76
2021/06/20 08:57:38;;;;;;;4.38;1.75;;;;;;;21.58;49.03;93789.00;5108708;28;20015;-76
2021/06/20 09:00:07;;;;;;;4.85;1.58;;;;;;;21.50;49.30;93785.50;5110951;28;20020;-76
2021/06/20 09:02:32;;;;;;;4.40;1.73;;;;;;;21.61;50.02;93783.56;5104213;28;20027;-75
2021/06/20 09:05:00;;;;;;;2.17;1.40;;;;;;;21.78;49.88;93776.63;5102876;28;20460;-76
2021/06/20 09:07:46;;;;;;;2.85;1.15;;;;;;;21.94;48.28;93776.28;5097221;28;20024;-76
2021/06/20 09:10:20;;;;;;;2.92;1.67;;;;;;;21.94;47.09;93776.28;5101435;28;20031;-76
2021/06/20 09:12:52;;;;;;;4.55;1.50;;;;;;;22.03;47.11;93784.00;5102402;28;20177;-76
2021/06/20 09:15:21;;;;;;;2.63;1.60;;;;;;;22.03;48.49;93776.66;5103698;28;20402;-76
2021/06/20 09:17:57;;;;;;;3.78;1.92;;;;;;;22.03;48.16;93775.88;5100620;28;20471;-76
2021/06/20 09:20:43;;;;;;;3.78;1.70;;;;;;;22.03;48.45;93778.59;5101712;28;20031;-76
2021/06/20 09:23:15;;;;;;;5.10;2.55;;;;;;;21.98;48.67;93774.34;5102197;28;20143;-74
2021/06/20 09:25:42;;;;;;;3.22;2.03;;;;;;;21.97;48.91;93777.44;5090453;28;20054;-75
2021/06/20 09:28:13;;;;;;;3.55;1.90;;;;;;;22.00;48.27;93774.72;5104878;28;20027;-75
2021/06/20 09:30:49;;;;;;;2.45;1.60;;;;;;;22.09;49.83;93766.19;5102678;28;20080;-75
2021/06/20 09:33:16;;;;;;;5.13;1.95;;;;;;;22.28;48.79;93762.31;5091572;28;20371;-75
2021/06/20 09:35:44;;;;;;;5.15;1.95;;;;;;;22.35;47.90;93772.41;5092625;28;20036;-75
2021/06/20 09:38:17;;;;;;;3.92;1.80;;;;;;;22.44;48.07;93778.19;5107147;28;20028;-75
2021/06/20 09:40:42;;;;;;;2.50;1.60;;;;;;;22.44;47.67;93775.47;5101705;28;20563;-75
2021/06/20 09:43:27;;;;;;;3.72;1.85;;;;;;;22.52;48.36;93781.69;5100172;28;20106;-75
2021/06/20 09:45:53;;;;;;;3.08;1.52;;;;;;;22.39;46.92;93770.47;5095728;28;20032;-74
2021/06/20 09:48:23;;;;;;;2.25;1.55;;;;;;;22.46;47.24;93764.22;5109186;28;20040;-75
2021/06/20 09:50:48;;;;;;;12.40;1.55;;;;;;;22.74;48.05;93760.69;5096995;28;20122;-75
2021/06/20 09:53:14;;;;;;;3.55;1.75;;;;;;;23.08;45.99;93755.53;5098767;28;20032;-75
2021/06/20 09:55:39;;;;;;;4.57;1.70;;;;;;;23.31;45.00;93755.03;5090191;28;20031;-75
2021/06/20 09:58:05;;;;;;;2.08;1.38;;;;;;;23.39;44.71;93759.25;5103493;28;20020;-75
2021/06/20 10:00:42;;;;;;;3.38;1.55;;;;;;;23.47;44.46;93762.72;5106936;28;20030;-76
2021/06/20 10:03:20;;;;;;;5.13;2.17;;;;;;;23.36;47.44;93757.31;5104318;28;20099;-75
2021/06/20 10:05:47;;;;;;;6.00;1.83;;;;;;;23.38;47.84;93752.25;5090770;28;20035;-75
2021/06/20 10:08:12;;;;;;;4.03;2.10;;;;;;;23.47;48.28;93748.31;5109172;28;20035;-75
2021/06/20 10:10:38;;;;;;;2.95;1.50;;;;;;;23.70;48.25;93748.56;5106182;27;20103;-75
2021/06/20 10:13:03;;;;;;;3.20;1.58;;;;;;;23.89;47.32;93747.28;5089215;28;20112;-75
2021/06/20 10:15:29;;;;;;;3.55;1.60;;;;;;;24.15;47.34;93750.59;5089198;28;20126;-75
2021/06/20 10:17:58;;;;;;;3.75;1.75;;;;;;;24.35;46.19;93745.38;5099073;28;20020;-75
2021/06/20 10:20:31;;;;;;;2.72;1.70;;;;;;;24.55;45.51;93743.63;5101439;28;20393;-75
2021/06/20 10:22:57;;;;;;;3.22;1.70;;;;;;;24.71;44.66;93732.19;5102649;28;20379;-75
2021/06/20 10:25:39;;;;;;;3.00;1.83;;;;;;;24.85;44.29;93733.19;5088945;28;20028;-75
2021/06/20 10:28:10;;;;;;;3.25;1.58;;;;;;;24.98;43.94;93736.94;5094758;28;20076;-75
2021/06/20 10:30:35;;;;;;;4.88;1.17;;;;;;;24.96;42.47;93731.13;5095425;28;20453;-76
2021/06/20 10:33:13;;;;;;;2.33;1.58;;;;;;;25.19;43.16;93724.97;5107345;28;20024;-76
2021/06/20 10:35:40;;;;;;;3.38;1.40;;;;;;;25.53;42.40;93724.94;5103635;28;20035;-75
2021/06/20 10:38:07;;;;;;;2.83;1.33;;;;;;;25.61;41.84;93725.59;5110655;28;20411;-75
2021/06/20 10:40:34;;;;;;;3.88;1.45;;;;;;;25.80;41.97;93719.44;5109206;28;20405;-77
2021/06/20 10:43:16;;;;;;;3.38;1.38;;;;;;;25.96;40.89;93723.53;5105586;28;20031;-77
2021/06/20 10:45:42;;;;;;;4.22;1.23;;;;;;;25.98;41.17;93723.91;5097716;28;20020;-77
2021/06/20 10:48:15;;;;;;;4.82;1.42;;;;;;;26.08;40.52;93714.75;5101644;28;20050;-78
2021/06/20 10:50:44;;;;;;;4.30;2.05;;;;;;;26.16;41.01;93707.97;5106081;28;20067;-77
2021/06/20 10:53:09;;;;;;;1.73;1.13;;;;;;;26.22;41.17;93703.59;5111384;28;20068;-77
2021/06/20 10:55:42;;;;;;;2.30;1.38;;;;;;;26.36;41.85;93704.53;5106723;28;20059;-78
2021/06/20 10:58:18;;;;;;;5.32;1.30;;;;;;;26.25;43.89;93709.41;5100271;28;20039;-77
2021/06/20 11:00:45;;;;;;;2.92;1.40;;;;;;;26.23;41.97;93694.19;5096692;28;20037;-77
2021/06/20 11:03:15;;;;;;;5.53;1.38;;;;;;;26.29;42.64;93699.94;5093273;28;20548;-77
2021/06/20 11:05:48;;;;;;;3.83;1.30;;;;;;;26.29;42.50;93701.91;5094828;28;20123;-75
2021/06/20 11:08:25;;;;;;;4.35;1.67;;;;;;;26.26;42.03;93700.03;5105114;28;20023;-79
2021/06/20 11:11:11;;;;;;;3.65;1.60;;;;;;;26.49;41.58;93699.22;5095078;28;20078;-84
2021/06/20 11:13:39;;;;;;;2.67;1.40;;;;;;;26.52;42.64;93677.28;5092374;28;20035;-80
2021/06/20 11:16:12;;;;;;;2.20;1.20;;;;;;;26.71;40.00;93681.25;5099673;28;20020;-78
2021/06/20 11:18:38;;;;;;;5.00;1.65;;;;;;;26.91;41.50;93681.25;5094287;28;20054;-80
2021/06/20 11:21:04;;;;;;;3.60;1.40;;;;;;;27.07;40.28;93687.94;5105116;28;20055;-81
2021/06/20 11:23:30;;;;;;;3.85;1.40;;;;;;;27.00;37.51;93677.94;5100678;28;20145;-80
2021/06/20 11:26:01;;;;;;;4.07;1.10;;;;;;;26.69;37.90;93680.91;5088120;28;20094;-80
2021/06/20 11:28:27;;;;;;;5.38;1.13;;;;;;;26.27;37.98;93679.72;5101712;28;20046;-79
2021/06/20 11:31:07;;;;;;;4.63;1.30;;;;;;;25.98;38.87;93677.47;5100001;28;20364;-80
2021/06/20 11:33:33;;;;;;;3.70;1.40;;;;;;;25.73;39.80;93672.41;5099557;28;20024;-78
2021/06/20 11:35:59;;;;;;;3.17;1.50;;;;;;;25.57;39.48;93679.25;5098032;28;20023;-79